sensor_id;sensor_type;location;lat;lon;timestamp;P1;durP1;ratioP1;P2;durP2;ratioP2
56239;SDS011;42154;51.992;5.896;2023-03-01T00:01:23;6.65;;;4.50;;
56239;SDS011;42154;51.992;5.896;2023-03-01T00:03:51;5.25;;;4.25;;
56239;SDS011;42154;51.992;5.896;2023-03-01T00:06:19;6.40;;;4.40;;
56239;SDS011;42154;51.992;5.896;2023-03-01T00:08:45;7.72;;;4.72;;
56239;SDS011;42154;51.992;5.896;2023-03-01T00:11:18;6.25;;;4.53;;
56239;SDS011;42154;51.992;5.896;2023-03-01T00:13:47;5.90;;;4.22;;
56239;SDS011;42154;51.992;5.896;2023-03-01T00:16:23;5.38;;;4.35;;
56239;SDS011;42154;51.992;5.896;2023-03-01T00:18:58;6.30;;;4.53;;
56239;SDS011;42154;51.992;5.896;2023-03-01T00:21:24;5.50;;;4.15;;
56239;SDS011;42154;51.992;5.896;2023-03-01T00:23:51;6.10;;;4.50;;
56239;SDS011;42154;51.992;5.896;2023-03-01T00:26:18;6.15;;;4.90;;
56239;SDS011;42154;51.992;5.896;2023-03-01T00:28:45;5.43;;;4.60;;
56239;SDS011;42154;51.992;5.896;2023-03-01T00:31:12;7.30;;;4.95;;
56239;SDS011;42154;51.992;5.896;2023-03-01T00:33:40;6.28;;;4.90;;
56239;SDS011;42154;51.992;5.896;2023-03-01T00:36:06;6.57;;;4.75;;
56239;SDS011;42154;51.992;5.896;2023-03-01T00:38:36;8.05;;;5.20;;
56239;SDS011;42154;51.992;5.896;2023-03-01T00:43:31;7.63;;;4.78;;
56239;SDS011;42154;51.992;5.896;2023-03-01T00:46:05;5.30;;;4.55;;
56239;SDS011;42154;51.992;5.896;2023-03-01T00:48:33;6.25;;;4.65;;
56239;SDS011;42154;51.992;5.896;2023-03-01T00:53:35;7.07;;;5.15;;
56239;SDS011;42154;51.992;5.896;2023-03-01T00:56:02;5.63;;;4.57;;
56239;SDS011;42154;51.992;5.896;2023-03-01T00:58:29;7.15;;;4.85;;
56239;SDS011;42154;51.992;5.896;2023-03-01T01:00:55;7.10;;;5.00;;
56239;SDS011;42154;51.992;5.896;2023-03-01T01:03:21;8.75;;;5.88;;
56239;SDS011;42154;51.992;5.896;2023-03-01T01:05:50;6.43;;;5.03;;
56239;SDS011;42154;51.992;5.896;2023-03-01T01:08:19;7.43;;;5.55;;
56239;SDS011;42154;51.992;5.896;2023-03-01T01:10:46;6.38;;;5.15;;
56239;SDS011;42154;51.992;5.896;2023-03-01T01:13:12;7.95;;;5.03;;
56239;SDS011;42154;51.992;5.896;2023-03-01T01:15:38;7.82;;;5.63;;
56239;SDS011;42154;51.992;5.896;2023-03-01T01:18:05;7.07;;;4.97;;
56239;SDS011;42154;51.992;5.896;2023-03-01T01:20:32;5.80;;;4.45;;
56239;SDS011;42154;51.992;5.896;2023-03-01T01:22:58;7.47;;;4.97;;
56239;SDS011;42154;51.992;5.896;2023-03-01T01:33:25;9.18;;;5.72;;
56239;SDS011;42154;51.992;5.896;2023-03-01T01:35:52;12.15;;;6.25;;
56239;SDS011;42154;51.992;5.896;2023-03-01T01:38:17;6.63;;;5.68;;
56239;SDS011;42154;51.992;5.896;2023-03-01T01:40:44;7.82;;;5.60;;
56239;SDS011;42154;51.992;5.896;2023-03-01T01:45:55;7.72;;;5.60;;
56239;SDS011;42154;51.992;5.896;2023-03-01T01:49:02;8.18;;;6.50;;
56239;SDS011;42154;51.992;5.896;2023-03-01T01:51:29;7.03;;;5.30;;
56239;SDS011;42154;51.992;5.896;2023-03-01T01:54:06;6.47;;;5.70;;
56239;SDS011;42154;51.992;5.896;2023-03-01T01:56:37;8.95;;;5.68;;
56239;SDS011;42154;51.992;5.896;2023-03-01T01:59:06;7.13;;;5.93;;
56239;SDS011;42154;51.992;5.896;2023-03-01T02:01:32;8.00;;;5.80;;
56239;SDS011;42154;51.992;5.896;2023-03-01T02:03:57;10.73;;;6.57;;
56239;SDS011;42154;51.992;5.896;2023-03-01T02:06:26;7.65;;;5.47;;
56239;SDS011;42154;51.992;5.896;2023-03-01T02:09:06;7.07;;;5.38;;
56239;SDS011;42154;51.992;5.896;2023-03-01T02:11:36;7.97;;;5.18;;
56239;SDS011;42154;51.992;5.896;2023-03-01T02:14:02;7.78;;;5.68;;
56239;SDS011;42154;51.992;5.896;2023-03-01T02:16:29;8.70;;;5.97;;
56239;SDS011;42154;51.992;5.896;2023-03-01T02:18:56;7.20;;;5.80;;
56239;SDS011;42154;51.992;5.896;2023-03-01T02:26:46;9.93;;;6.22;;
56239;SDS011;42154;51.992;5.896;2023-03-01T02:29:16;9.52;;;5.75;;
56239;SDS011;42154;51.992;5.896;2023-03-01T02:31:42;7.95;;;6.10;;
56239;SDS011;42154;51.992;5.896;2023-03-01T02:34:12;8.38;;;5.32;;
56239;SDS011;42154;51.992;5.896;2023-03-01T02:36:44;7.80;;;5.75;;
56239;SDS011;42154;51.992;5.896;2023-03-01T02:39:15;8.13;;;5.97;;
56239;SDS011;42154;51.992;5.896;2023-03-01T02:41:48;6.70;;;5.20;;
56239;SDS011;42154;51.992;5.896;2023-03-01T02:44:16;8.10;;;5.22;;
56239;SDS011;42154;51.992;5.896;2023-03-01T02:46:46;6.65;;;5.18;;
56239;SDS011;42154;51.992;5.896;2023-03-01T02:49:19;7.20;;;5.65;;
56239;SDS011;42154;51.992;5.896;2023-03-01T02:54:52;7.75;;;6.45;;
56239;SDS011;42154;51.992;5.896;2023-03-01T02:57:26;6.78;;;5.47;;
56239;SDS011;42154;51.992;5.896;2023-03-01T02:59:54;6.78;;;5.45;;
56239;SDS011;42154;51.992;5.896;2023-03-01T03:02:23;7.15;;;5.60;;
56239;SDS011;42154;51.992;5.896;2023-03-01T03:05:10;6.82;;;5.47;;
56239;SDS011;42154;51.992;5.896;2023-03-01T03:07:41;8.02;;;5.57;;
56239;SDS011;42154;51.992;5.896;2023-03-01T03:10:09;6.35;;;5.25;;
56239;SDS011;42154;51.992;5.896;2023-03-01T03:12:41;7.28;;;5.43;;
56239;SDS011;42154;51.992;5.896;2023-03-01T03:15:08;7.55;;;5.40;;
56239;SDS011;42154;51.992;5.896;2023-03-01T03:17:38;7.82;;;5.07;;
56239;SDS011;42154;51.992;5.896;2023-03-01T03:20:06;5.70;;;5.07;;
56239;SDS011;42154;51.992;5.896;2023-03-01T03:22:36;7.60;;;5.60;;
56239;SDS011;42154;51.992;5.896;2023-03-01T03:25:08;6.93;;;4.97;;
56239;SDS011;42154;51.992;5.896;2023-03-01T03:27:40;7.15;;;5.38;;
56239;SDS011;42154;51.992;5.896;2023-03-01T03:30:08;5.43;;;4.63;;
56239;SDS011;42154;51.992;5.896;2023-03-01T03:32:40;8.82;;;5.50;;
56239;SDS011;42154;51.992;5.896;2023-03-01T03:35:17;6.07;;;4.60;;
56239;SDS011;42154;51.992;5.896;2023-03-01T03:37:49;7.45;;;5.15;;
56239;SDS011;42154;51.992;5.896;2023-03-01T03:40:38;6.50;;;4.85;;
56239;SDS011;42154;51.992;5.896;2023-03-01T03:43:06;6.43;;;5.03;;
56239;SDS011;42154;51.992;5.896;2023-03-01T03:45:33;5.90;;;4.40;;
56239;SDS011;42154;51.992;5.896;2023-03-01T03:48:00;5.75;;;4.78;;
56239;SDS011;42154;51.992;5.896;2023-03-01T03:50:28;5.20;;;4.47;;
56239;SDS011;42154;51.992;5.896;2023-03-01T03:52:54;7.65;;;4.78;;
56239;SDS011;42154;51.992;5.896;2023-03-01T03:55:19;6.72;;;5.07;;
56239;SDS011;42154;51.992;5.896;2023-03-01T03:57:46;6.25;;;4.30;;
56239;SDS011;42154;51.992;5.896;2023-03-01T04:00:18;4.85;;;3.70;;
56239;SDS011;42154;51.992;5.896;2023-03-01T04:02:46;6.13;;;3.80;;
56239;SDS011;42154;51.992;5.896;2023-03-01T04:05:13;7.15;;;4.43;;
56239;SDS011;42154;51.992;5.896;2023-03-01T04:07:41;6.60;;;4.95;;
56239;SDS011;42154;51.992;5.896;2023-03-01T04:10:08;7.53;;;4.55;;
56239;SDS011;42154;51.992;5.896;2023-03-01T04:12:36;5.00;;;4.00;;
56239;SDS011;42154;51.992;5.896;2023-03-01T04:15:02;6.78;;;4.75;;
56239;SDS011;42154;51.992;5.896;2023-03-01T04:17:40;6.25;;;4.25;;
56239;SDS011;42154;51.992;5.896;2023-03-01T04:20:08;6.55;;;4.90;;
56239;SDS011;42154;51.992;5.896;2023-03-01T04:22:36;7.72;;;5.20;;
56239;SDS011;42154;51.992;5.896;2023-03-01T04:25:03;9.30;;;5.38;;
56239;SDS011;42154;51.992;5.896;2023-03-01T04:27:34;6.90;;;5.22;;
56239;SDS011;42154;51.992;5.896;2023-03-01T04:30:01;6.03;;;4.53;;
56239;SDS011;42154;51.992;5.896;2023-03-01T04:32:28;6.28;;;4.60;;
56239;SDS011;42154;51.992;5.896;2023-03-01T04:34:54;6.97;;;5.13;;
56239;SDS011;42154;51.992;5.896;2023-03-01T04:37:19;6.70;;;4.90;;
56239;SDS011;42154;51.992;5.896;2023-03-01T04:39:45;8.45;;;5.53;;
56239;SDS011;42154;51.992;5.896;2023-03-01T04:42:13;7.22;;;5.07;;
56239;SDS011;42154;51.992;5.896;2023-03-01T04:44:39;6.68;;;4.70;;
56239;SDS011;42154;51.992;5.896;2023-03-01T04:47:05;7.30;;;4.80;;
56239;SDS011;42154;51.992;5.896;2023-03-01T04:49:31;6.22;;;4.50;;
56239;SDS011;42154;51.992;5.896;2023-03-01T04:51:57;7.22;;;5.18;;
56239;SDS011;42154;51.992;5.896;2023-03-01T04:54:32;7.22;;;5.30;;
56239;SDS011;42154;51.992;5.896;2023-03-01T04:56:59;6.35;;;4.80;;
56239;SDS011;42154;51.992;5.896;2023-03-01T04:59:26;8.25;;;4.47;;
56239;SDS011;42154;51.992;5.896;2023-03-01T05:01:52;6.80;;;4.47;;
56239;SDS011;42154;51.992;5.896;2023-03-01T05:04:20;6.57;;;4.72;;
56239;SDS011;42154;51.992;5.896;2023-03-01T05:06:47;6.72;;;5.13;;
56239;SDS011;42154;51.992;5.896;2023-03-01T05:09:12;5.35;;;4.40;;
56239;SDS011;42154;51.992;5.896;2023-03-01T05:11:38;5.90;;;4.30;;
56239;SDS011;42154;51.992;5.896;2023-03-01T05:14:04;5.95;;;4.60;;
56239;SDS011;42154;51.992;5.896;2023-03-01T05:16:31;7.88;;;5.10;;
56239;SDS011;42154;51.992;5.896;2023-03-01T05:18:57;7.78;;;5.00;;
56239;SDS011;42154;51.992;5.896;2023-03-01T05:21:24;6.80;;;5.28;;
56239;SDS011;42154;51.992;5.896;2023-03-01T05:23:50;7.05;;;5.63;;
56239;SDS011;42154;51.992;5.896;2023-03-01T05:26:17;7.88;;;5.40;;
56239;SDS011;42154;51.992;5.896;2023-03-01T05:28:53;8.40;;;5.88;;
56239;SDS011;42154;51.992;5.896;2023-03-01T05:31:23;8.45;;;5.38;;
56239;SDS011;42154;51.992;5.896;2023-03-01T05:33:49;6.47;;;5.20;;
56239;SDS011;42154;51.992;5.896;2023-03-01T05:36:14;8.50;;;5.97;;
56239;SDS011;42154;51.992;5.896;2023-03-01T05:38:40;7.15;;;5.72;;
56239;SDS011;42154;51.992;5.896;2023-03-01T05:41:12;8.65;;;6.03;;
56239;SDS011;42154;51.992;5.896;2023-03-01T05:43:40;8.60;;;5.95;;
56239;SDS011;42154;51.992;5.896;2023-03-01T05:46:08;7.20;;;4.75;;
56239;SDS011;42154;51.992;5.896;2023-03-01T05:48:37;6.60;;;5.07;;
56239;SDS011;42154;51.992;5.896;2023-03-01T05:51:04;6.38;;;4.53;;
56239;SDS011;42154;51.992;5.896;2023-03-01T05:53:29;8.45;;;5.00;;
56239;SDS011;42154;51.992;5.896;2023-03-01T05:55:55;8.65;;;5.95;;
56239;SDS011;42154;51.992;5.896;2023-03-01T05:58:21;9.10;;;5.93;;
56239;SDS011;42154;51.992;5.896;2023-03-01T06:00:47;8.65;;;5.78;;
56239;SDS011;42154;51.992;5.896;2023-03-01T06:03:14;7.82;;;5.72;;
56239;SDS011;42154;51.992;5.896;2023-03-01T06:05:41;8.85;;;6.30;;
56239;SDS011;42154;51.992;5.896;2023-03-01T06:08:08;7.53;;;5.53;;
56239;SDS011;42154;51.992;5.896;2023-03-01T06:10:35;6.72;;;5.25;;
56239;SDS011;42154;51.992;5.896;2023-03-01T06:13:00;9.20;;;5.45;;
56239;SDS011;42154;51.992;5.896;2023-03-01T06:15:26;7.88;;;5.60;;
56239;SDS011;42154;51.992;5.896;2023-03-01T06:17:53;8.15;;;5.30;;
56239;SDS011;42154;51.992;5.896;2023-03-01T06:20:24;7.78;;;5.75;;
56239;SDS011;42154;51.992;5.896;2023-03-01T06:22:51;8.65;;;5.70;;
56239;SDS011;42154;51.992;5.896;2023-03-01T06:25:18;8.80;;;5.32;;
56239;SDS011;42154;51.992;5.896;2023-03-01T06:27:46;7.75;;;5.38;;
56239;SDS011;42154;51.992;5.896;2023-03-01T06:30:14;9.10;;;5.25;;
56239;SDS011;42154;51.992;5.896;2023-03-01T06:32:42;7.45;;;5.28;;
56239;SDS011;42154;51.992;5.896;2023-03-01T06:35:11;8.95;;;5.25;;
56239;SDS011;42154;51.992;5.896;2023-03-01T06:37:38;6.00;;;4.85;;
56239;SDS011;42154;51.992;5.896;2023-03-01T06:40:06;8.77;;;5.72;;
56239;SDS011;42154;51.992;5.896;2023-03-01T06:42:36;7.50;;;5.40;;
56239;SDS011;42154;51.992;5.896;2023-03-01T06:47:31;8.40;;;6.05;;
56239;SDS011;42154;51.992;5.896;2023-03-01T06:49:58;8.05;;;5.82;;
56239;SDS011;42154;51.992;5.896;2023-03-01T06:52:24;9.05;;;5.63;;
56239;SDS011;42154;51.992;5.896;2023-03-01T06:54:50;9.20;;;6.15;;
56239;SDS011;42154;51.992;5.896;2023-03-01T06:57:16;8.23;;;5.57;;
56239;SDS011;42154;51.992;5.896;2023-03-01T06:59:42;7.63;;;5.30;;
56239;SDS011;42154;51.992;5.896;2023-03-01T07:02:11;6.78;;;4.88;;
56239;SDS011;42154;51.992;5.896;2023-03-01T07:04:37;8.75;;;5.57;;
56239;SDS011;42154;51.992;5.896;2023-03-01T07:07:04;7.32;;;5.07;;
56239;SDS011;42154;51.992;5.896;2023-03-01T07:09:30;6.35;;;4.88;;
56239;SDS011;42154;51.992;5.896;2023-03-01T07:11:56;8.45;;;4.93;;
56239;SDS011;42154;51.992;5.896;2023-03-01T07:14:22;9.95;;;5.25;;
56239;SDS011;42154;51.992;5.896;2023-03-01T07:16:49;7.53;;;5.22;;
56239;SDS011;42154;51.992;5.896;2023-03-01T07:19:15;6.72;;;5.28;;
56239;SDS011;42154;51.992;5.896;2023-03-01T07:21:41;7.35;;;4.80;;
56239;SDS011;42154;51.992;5.896;2023-03-01T07:24:07;8.63;;;5.88;;
56239;SDS011;42154;51.992;5.896;2023-03-01T07:26:33;7.57;;;5.68;;
56239;SDS011;42154;51.992;5.896;2023-03-01T07:29:00;7.45;;;5.47;;
56239;SDS011;42154;51.992;5.896;2023-03-01T07:31:26;8.80;;;5.88;;
56239;SDS011;42154;51.992;5.896;2023-03-01T07:33:53;8.65;;;5.80;;
56239;SDS011;42154;51.992;5.896;2023-03-01T07:36:19;7.38;;;5.88;;
56239;SDS011;42154;51.992;5.896;2023-03-01T07:38:45;9.23;;;5.88;;
56239;SDS011;42154;51.992;5.896;2023-03-01T07:41:11;7.35;;;5.43;;
56239;SDS011;42154;51.992;5.896;2023-03-01T07:43:37;6.30;;;4.75;;
56239;SDS011;42154;51.992;5.896;2023-03-01T07:46:03;8.35;;;5.15;;
56239;SDS011;42154;51.992;5.896;2023-03-01T07:48:30;7.60;;;5.30;;
56239;SDS011;42154;51.992;5.896;2023-03-01T07:51:00;8.90;;;5.50;;
56239;SDS011;42154;51.992;5.896;2023-03-01T07:53:27;8.00;;;5.40;;
56239;SDS011;42154;51.992;5.896;2023-03-01T07:58:27;10.30;;;5.45;;
56239;SDS011;42154;51.992;5.896;2023-03-01T08:00:53;8.38;;;4.90;;
56239;SDS011;42154;51.992;5.896;2023-03-01T08:03:19;8.38;;;5.65;;
56239;SDS011;42154;51.992;5.896;2023-03-01T08:05:44;7.90;;;5.30;;
56239;SDS011;42154;51.992;5.896;2023-03-01T08:08:10;7.45;;;5.20;;
56239;SDS011;42154;51.992;5.896;2023-03-01T08:10:36;6.40;;;4.55;;
56239;SDS011;42154;51.992;5.896;2023-03-01T08:13:02;7.75;;;4.50;;
56239;SDS011;42154;51.992;5.896;2023-03-01T08:15:27;8.10;;;5.03;;
56239;SDS011;42154;51.992;5.896;2023-03-01T08:17:53;7.25;;;4.82;;
56239;SDS011;42154;51.992;5.896;2023-03-01T08:20:19;7.20;;;5.22;;
56239;SDS011;42154;51.992;5.896;2023-03-01T08:22:45;8.57;;;5.03;;
56239;SDS011;42154;51.992;5.896;2023-03-01T08:25:10;7.82;;;5.18;;
56239;SDS011;42154;51.992;5.896;2023-03-01T08:27:36;8.52;;;5.65;;
56239;SDS011;42154;51.992;5.896;2023-03-01T08:30:02;9.68;;;5.78;;
56239;SDS011;42154;51.992;5.896;2023-03-01T08:32:28;8.10;;;5.38;;
56239;SDS011;42154;51.992;5.896;2023-03-01T08:34:54;9.13;;;5.60;;
56239;SDS011;42154;51.992;5.896;2023-03-01T08:37:20;8.20;;;5.13;;
56239;SDS011;42154;51.992;5.896;2023-03-01T08:39:46;7.55;;;4.90;;
56239;SDS011;42154;51.992;5.896;2023-03-01T08:42:11;7.47;;;5.03;;
56239;SDS011;42154;51.992;5.896;2023-03-01T08:44:37;6.95;;;4.60;;
56239;SDS011;42154;51.992;5.896;2023-03-01T08:47:03;8.55;;;5.00;;
56239;SDS011;42154;51.992;5.896;2023-03-01T08:49:30;10.05;;;5.40;;
56239;SDS011;42154;51.992;5.896;2023-03-01T08:51:57;7.35;;;4.57;;
56239;SDS011;42154;51.992;5.896;2023-03-01T08:54:23;9.52;;;4.82;;
56239;SDS011;42154;51.992;5.896;2023-03-01T08:56:49;7.25;;;4.93;;
56239;SDS011;42154;51.992;5.896;2023-03-01T08:59:15;6.53;;;3.95;;
56239;SDS011;42154;51.992;5.896;2023-03-01T09:01:42;7.53;;;4.10;;
56239;SDS011;42154;51.992;5.896;2023-03-01T09:04:11;9.73;;;4.72;;
56239;SDS011;42154;51.992;5.896;2023-03-01T09:06:37;5.90;;;4.40;;
56239;SDS011;42154;51.992;5.896;2023-03-01T09:09:04;5.90;;;3.97;;
56239;SDS011;42154;51.992;5.896;2023-03-01T09:11:30;8.00;;;4.20;;
56239;SDS011;42154;51.992;5.896;2023-03-01T09:13:56;5.10;;;4.10;;
56239;SDS011;42154;51.992;5.896;2023-03-01T09:16:22;6.55;;;3.85;;
56239;SDS011;42154;51.992;5.896;2023-03-01T09:18:49;5.70;;;3.80;;
56239;SDS011;42154;51.992;5.896;2023-03-01T09:21:19;5.55;;;3.13;;
56239;SDS011;42154;51.992;5.896;2023-03-01T09:23:47;7.30;;;4.03;;
56239;SDS011;42154;51.992;5.896;2023-03-01T09:26:22;7.50;;;4.65;;
56239;SDS011;42154;51.992;5.896;2023-03-01T09:28:50;5.43;;;4.20;;
56239;SDS011;42154;51.992;5.896;2023-03-01T09:31:18;7.40;;;4.60;;
56239;SDS011;42154;51.992;5.896;2023-03-01T09:33:48;6.07;;;4.10;;
56239;SDS011;42154;51.992;5.896;2023-03-01T09:36:16;5.60;;;3.25;;
56239;SDS011;42154;51.992;5.896;2023-03-01T09:38:43;6.00;;;3.85;;
56239;SDS011;42154;51.992;5.896;2023-03-01T09:44:13;6.22;;;4.75;;
56239;SDS011;42154;51.992;5.896;2023-03-01T09:46:44;8.50;;;5.85;;
56239;SDS011;42154;51.992;5.896;2023-03-01T09:49:18;8.50;;;5.80;;
56239;SDS011;42154;51.992;5.896;2023-03-01T09:51:57;7.85;;;6.47;;
56239;SDS011;42154;51.992;5.896;2023-03-01T09:54:23;10.43;;;7.20;;
56239;SDS011;42154;51.992;5.896;2023-03-01T10:00:00;10.30;;;7.25;;
56239;SDS011;42154;51.992;5.896;2023-03-01T10:05:38;9.70;;;7.38;;
56239;SDS011;42154;51.992;5.896;2023-03-01T10:08:25;9.45;;;7.10;;
56239;SDS011;42154;51.992;5.896;2023-03-01T10:11:14;9.13;;;7.15;;
56239;SDS011;42154;51.992;5.896;2023-03-01T10:19:21;10.77;;;7.15;;
56239;SDS011;42154;51.992;5.896;2023-03-01T10:22:20;8.70;;;5.68;;
56239;SDS011;42154;51.992;5.896;2023-03-01T10:24:54;7.03;;;5.13;;
56239;SDS011;42154;51.992;5.896;2023-03-01T10:27:27;7.38;;;5.28;;
56239;SDS011;42154;51.992;5.896;2023-03-01T10:30:05;8.15;;;5.78;;
56239;SDS011;42154;51.992;5.896;2023-03-01T10:32:41;6.70;;;5.00;;
56239;SDS011;42154;51.992;5.896;2023-03-01T10:40:31;9.07;;;5.18;;
56239;SDS011;42154;51.992;5.896;2023-03-01T10:42:59;9.85;;;5.22;;
56239;SDS011;42154;51.992;5.896;2023-03-01T10:45:37;7.47;;;5.13;;
56239;SDS011;42154;51.992;5.896;2023-03-01T10:48:05;8.25;;;5.15;;
56239;SDS011;42154;51.992;5.896;2023-03-01T10:50:41;8.18;;;4.93;;
56239;SDS011;42154;51.992;5.896;2023-03-01T10:53:22;8.05;;;4.68;;
56239;SDS011;42154;51.992;5.896;2023-03-01T10:56:02;6.78;;;4.47;;
56239;SDS011;42154;51.992;5.896;2023-03-01T10:58:29;6.82;;;4.60;;
56239;SDS011;42154;51.992;5.896;2023-03-01T11:00:57;8.68;;;4.78;;
56239;SDS011;42154;51.992;5.896;2023-03-01T11:03:29;6.13;;;4.57;;
56239;SDS011;42154;51.992;5.896;2023-03-01T11:08:36;7.63;;;4.85;;
56239;SDS011;42154;51.992;5.896;2023-03-01T11:11:16;8.20;;;4.82;;
56239;SDS011;42154;51.992;5.896;2023-03-01T11:14:00;5.57;;;4.20;;
56239;SDS011;42154;51.992;5.896;2023-03-01T11:16:46;9.50;;;4.53;;
56239;SDS011;42154;51.992;5.896;2023-03-01T11:19:15;6.47;;;4.18;;
56239;SDS011;42154;51.992;5.896;2023-03-01T11:22:05;5.25;;;3.80;;
56239;SDS011;42154;51.992;5.896;2023-03-01T11:27:19;5.38;;;4.43;;
56239;SDS011;42154;51.992;5.896;2023-03-01T11:30:16;6.75;;;4.22;;
56239;SDS011;42154;51.992;5.896;2023-03-01T11:43:59;7.13;;;4.28;;
56239;SDS011;42154;51.992;5.896;2023-03-01T12:00:59;7.97;;;4.83;;
56239;SDS011;42154;51.992;5.896;2023-03-01T12:05:46;6.10;;;4.50;;
56239;SDS011;42154;51.992;5.896;2023-03-01T12:16:51;5.20;;;4.22;;
56239;SDS011;42154;51.992;5.896;2023-03-01T12:19:37;7.05;;;4.63;;
56239;SDS011;42154;51.992;5.896;2023-03-01T12:22:44;5.78;;;4.88;;
56239;SDS011;42154;51.992;5.896;2023-03-01T12:25:16;6.65;;;4.90;;
56239;SDS011;42154;51.992;5.896;2023-03-01T12:30:48;6.30;;;4.38;;
56239;SDS011;42154;51.992;5.896;2023-03-01T12:33:23;6.07;;;4.60;;
56239;SDS011;42154;51.992;5.896;2023-03-01T12:49:41;6.78;;;3.95;;
56239;SDS011;42154;51.992;5.896;2023-03-01T12:52:17;5.57;;;3.97;;
56239;SDS011;42154;51.992;5.896;2023-03-01T12:54:45;6.15;;;4.10;;
56239;SDS011;42154;51.992;5.896;2023-03-01T12:57:26;5.47;;;4.07;;
56239;SDS011;42154;51.992;5.896;2023-03-01T13:03:09;7.40;;;4.50;;
56239;SDS011;42154;51.992;5.896;2023-03-01T13:11:25;7.65;;;4.38;;
56239;SDS011;42154;51.992;5.896;2023-03-01T13:13:51;4.82;;;3.60;;
56239;SDS011;42154;51.992;5.896;2023-03-01T13:16:40;5.75;;;4.30;;
56239;SDS011;42154;51.992;5.896;2023-03-01T13:19:29;6.22;;;3.97;;
56239;SDS011;42154;51.992;5.896;2023-03-01T13:21:56;5.38;;;3.70;;
56239;SDS011;42154;51.992;5.896;2023-03-01T13:24:25;6.85;;;4.05;;
56239;SDS011;42154;51.992;5.896;2023-03-01T13:29:32;6.88;;;4.07;;
56239;SDS011;42154;51.992;5.896;2023-03-01T13:32:18;7.10;;;4.20;;
56239;SDS011;42154;51.992;5.896;2023-03-01T13:37:45;6.00;;;4.32;;
56239;SDS011;42154;51.992;5.896;2023-03-01T13:42:54;6.40;;;3.53;;
56239;SDS011;42154;51.992;5.896;2023-03-01T13:47:58;6.93;;;4.22;;
56239;SDS011;42154;51.992;5.896;2023-03-01T13:50:28;4.55;;;3.65;;
56239;SDS011;42154;51.992;5.896;2023-03-01T13:53:02;6.55;;;4.00;;
56239;SDS011;42154;51.992;5.896;2023-03-01T13:55:36;6.55;;;4.18;;
56239;SDS011;42154;51.992;5.896;2023-03-01T13:58:25;9.13;;;4.10;;
56239;SDS011;42154;51.992;5.896;2023-03-01T14:00:55;4.53;;;3.88;;
56239;SDS011;42154;51.992;5.896;2023-03-01T14:03:31;4.80;;;3.53;;
56239;SDS011;42154;51.992;5.896;2023-03-01T14:06:06;5.85;;;4.00;;
56239;SDS011;42154;51.992;5.896;2023-03-01T14:08:35;6.72;;;4.05;;
56239;SDS011;42154;51.992;5.896;2023-03-01T14:16:49;6.10;;;3.70;;
56239;SDS011;42154;51.992;5.896;2023-03-01T14:19:33;6.10;;;4.00;;
56239;SDS011;42154;51.992;5.896;2023-03-01T14:24:58;5.78;;;4.53;;
56239;SDS011;42154;51.992;5.896;2023-03-01T14:27:26;6.32;;;4.50;;
56239;SDS011;42154;51.992;5.896;2023-03-01T14:32:25;6.05;;;4.03;;
56239;SDS011;42154;51.992;5.896;2023-03-01T14:34:53;7.35;;;4.57;;
56239;SDS011;42154;51.992;5.896;2023-03-01T14:39:56;6.30;;;4.20;;
56239;SDS011;42154;51.992;5.896;2023-03-01T14:42:24;5.88;;;4.35;;
56239;SDS011;42154;51.992;5.896;2023-03-01T14:44:53;9.70;;;4.88;;
56239;SDS011;42154;51.992;5.896;2023-03-01T14:47:31;5.95;;;4.25;;
56239;SDS011;42154;51.992;5.896;2023-03-01T14:50:05;7.18;;;4.05;;
56239;SDS011;42154;51.992;5.896;2023-03-01T14:53:03;5.50;;;4.35;;
56239;SDS011;42154;51.992;5.896;2023-03-01T14:57:58;6.88;;;4.07;;
56239;SDS011;42154;51.992;5.896;2023-03-01T15:00:26;6.43;;;3.88;;
56239;SDS011;42154;51.992;5.896;2023-03-01T15:02:56;5.57;;;4.30;;
56239;SDS011;42154;51.992;5.896;2023-03-01T15:05:29;6.80;;;4.10;;
56239;SDS011;42154;51.992;5.896;2023-03-01T15:07:59;6.13;;;3.45;;
56239;SDS011;42154;51.992;5.896;2023-03-01T15:10:29;6.05;;;3.92;;
56239;SDS011;42154;51.992;5.896;2023-03-01T15:13:09;8.77;;;4.25;;
56239;SDS011;42154;51.992;5.896;2023-03-01T15:15:45;5.13;;;3.80;;
56239;SDS011;42154;51.992;5.896;2023-03-01T15:20:43;5.70;;;4.03;;
56239;SDS011;42154;51.992;5.896;2023-03-01T15:23:23;6.43;;;4.03;;
56239;SDS011;42154;51.992;5.896;2023-03-01T15:25:51;5.53;;;3.75;;
56239;SDS011;42154;51.992;5.896;2023-03-01T15:28:22;5.15;;;3.83;;
56239;SDS011;42154;51.992;5.896;2023-03-01T15:30:57;7.30;;;5.30;;
56239;SDS011;42154;51.992;5.896;2023-03-01T15:35:55;5.25;;;3.95;;
56239;SDS011;42154;51.992;5.896;2023-03-01T15:38:33;4.80;;;3.50;;
56239;SDS011;42154;51.992;5.896;2023-03-01T15:41:32;4.38;;;3.47;;
56239;SDS011;42154;51.992;5.896;2023-03-01T15:44:14;5.85;;;4.03;;
56239;SDS011;42154;51.992;5.896;2023-03-01T15:46:49;5.40;;;3.35;;
56239;SDS011;42154;51.992;5.896;2023-03-01T15:55:06;7.30;;;3.55;;
56239;SDS011;42154;51.992;5.896;2023-03-01T15:57:43;4.13;;;3.05;;
56239;SDS011;42154;51.992;5.896;2023-03-01T16:00:09;3.58;;;2.83;;
56239;SDS011;42154;51.992;5.896;2023-03-01T16:02:38;4.68;;;3.13;;
56239;SDS011;42154;51.992;5.896;2023-03-01T16:05:05;5.90;;;3.90;;
56239;SDS011;42154;51.992;5.896;2023-03-01T16:07:41;6.90;;;3.17;;
56239;SDS011;42154;51.992;5.896;2023-03-01T16:10:07;2.97;;;2.50;;
56239;SDS011;42154;51.992;5.896;2023-03-01T16:12:33;5.18;;;2.78;;
56239;SDS011;42154;51.992;5.896;2023-03-01T16:14:59;4.47;;;3.50;;
56239;SDS011;42154;51.992;5.896;2023-03-01T16:17:24;4.18;;;3.65;;
56239;SDS011;42154;51.992;5.896;2023-03-01T16:19:50;5.72;;;3.65;;
56239;SDS011;42154;51.992;5.896;2023-03-01T16:22:16;5.85;;;3.65;;
56239;SDS011;42154;51.992;5.896;2023-03-01T16:24:42;4.57;;;3.33;;
56239;SDS011;42154;51.992;5.896;2023-03-01T16:27:08;7.18;;;3.30;;
56239;SDS011;42154;51.992;5.896;2023-03-01T16:29:34;4.18;;;3.20;;
56239;SDS011;42154;51.992;5.896;2023-03-01T16:32:00;5.22;;;3.80;;
56239;SDS011;42154;51.992;5.896;2023-03-01T16:34:27;5.18;;;3.10;;
56239;SDS011;42154;51.992;5.896;2023-03-01T16:36:53;4.78;;;3.35;;
56239;SDS011;42154;51.992;5.896;2023-03-01T16:39:18;5.25;;;3.20;;
56239;SDS011;42154;51.992;5.896;2023-03-01T16:41:44;4.88;;;3.22;;
56239;SDS011;42154;51.992;5.896;2023-03-01T16:44:10;3.60;;;2.90;;
56239;SDS011;42154;51.992;5.896;2023-03-01T16:46:35;3.72;;;2.53;;
56239;SDS011;42154;51.992;5.896;2023-03-01T16:49:01;4.47;;;3.00;;
56239;SDS011;42154;51.992;5.896;2023-03-01T16:51:28;3.50;;;2.53;;
56239;SDS011;42154;51.992;5.896;2023-03-01T16:53:54;4.07;;;3.20;;
56239;SDS011;42154;51.992;5.896;2023-03-01T16:56:20;3.30;;;2.70;;
56239;SDS011;42154;51.992;5.896;2023-03-01T16:58:46;5.88;;;3.20;;
56239;SDS011;42154;51.992;5.896;2023-03-01T17:01:13;4.18;;;2.75;;
56239;SDS011;42154;51.992;5.896;2023-03-01T17:03:44;4.47;;;2.55;;
56239;SDS011;42154;51.992;5.896;2023-03-01T17:06:15;4.30;;;2.97;;
56239;SDS011;42154;51.992;5.896;2023-03-01T17:08:43;4.53;;;2.50;;
56239;SDS011;42154;51.992;5.896;2023-03-01T17:11:10;3.65;;;2.38;;
56239;SDS011;42154;51.992;5.896;2023-03-01T17:13:39;5.57;;;2.78;;
56239;SDS011;42154;51.992;5.896;2023-03-01T17:16:05;4.28;;;2.63;;
56239;SDS011;42154;51.992;5.896;2023-03-01T17:18:33;3.40;;;2.35;;
56239;SDS011;42154;51.992;5.896;2023-03-01T17:20:59;3.67;;;2.47;;
56239;SDS011;42154;51.992;5.896;2023-03-01T17:23:26;2.97;;;2.10;;
56239;SDS011;42154;51.992;5.896;2023-03-01T17:25:53;4.15;;;2.53;;
56239;SDS011;42154;51.992;5.896;2023-03-01T17:28:20;3.40;;;2.47;;
56239;SDS011;42154;51.992;5.896;2023-03-01T17:30:47;3.83;;;2.53;;
56239;SDS011;42154;51.992;5.896;2023-03-01T17:33:13;3.75;;;2.58;;
56239;SDS011;42154;51.992;5.896;2023-03-01T17:35:39;3.40;;;2.50;;
56239;SDS011;42154;51.992;5.896;2023-03-01T17:38:05;4.00;;;2.80;;